Stoughton, Canada
Current Conditions -  °F | °C
As of 4:00 PM on Friday 31 Oct 2014 (Local Time) from CYEN Reporting Station
Overcast Overcast  
Wind Chill: 31°   Ceiling: 25000
Heat Index: 41°   Visibility: 15mi
Dew Point: 23°   Wind: 22mph
Humidity: 49%   Direction: 140°SE
Pressure: 30.03"   Gusts: 28mph
Location:  49.68°N, 103.02°W
Report Text: CYEN 312200Z 14019G24KT 15SM SCT140 OVC250 05/M05 A3003 RMKAC2CI2 PRESFR SLP199
Loading
Personal Weather Stations






























Interactive Weather Map
Tropical Storm Tracking
New forecast layout! Learn more

10-Day Weather Forecast

Advertisements
Track Severe Weather on mobile